createdAt,value
2018-08-13T00:01:04.529Z,2.47
2018-08-13T00:05:06.696Z,3.60
2018-08-13T00:09:08.847Z,3.30
2018-08-13T00:13:11.068Z,3.03
2018-08-13T00:17:13.435Z,2.40
2018-08-13T00:21:15.642Z,2.80
2018-08-13T00:25:17.767Z,3.30
2018-08-13T00:29:19.916Z,3.33
2018-08-13T00:33:22.116Z,3.23
2018-08-13T00:37:24.291Z,2.93
2018-08-13T00:41:26.451Z,3.50
2018-08-13T00:45:28.645Z,3.80
2018-08-13T00:49:31.156Z,2.83
2018-08-13T00:53:33.290Z,3.20
2018-08-13T00:57:35.815Z,2.67
2018-08-13T01:01:37.991Z,3.40
2018-08-13T01:05:40.158Z,3.77
2018-08-13T01:09:42.347Z,3.17
2018-08-13T01:13:44.511Z,3.70
2018-08-13T01:17:47.802Z,3.60
2018-08-13T01:21:50.096Z,3.63
2018-08-13T01:25:52.258Z,3.17
2018-08-13T01:29:54.406Z,3.70
2018-08-13T01:33:56.578Z,4.17
2018-08-13T01:37:58.779Z,4.07
2018-08-13T01:42:00.930Z,3.90
2018-08-13T01:46:03.155Z,3.50
2018-08-13T01:50:08.170Z,4.83
2018-08-13T01:54:10.354Z,4.67
2018-08-13T01:58:12.534Z,4.60
2018-08-13T02:02:14.683Z,4.00
2018-08-13T02:06:16.923Z,3.80
2018-08-13T02:10:19.126Z,3.40
2018-08-13T02:14:21.432Z,3.03
2018-08-13T02:18:23.623Z,3.57
2018-08-13T02:22:25.852Z,3.00
2018-08-13T02:26:28.004Z,3.00
2018-08-13T02:30:30.223Z,2.60
2018-08-13T02:34:32.351Z,3.20
2018-08-13T02:38:34.496Z,3.40
2018-08-13T02:42:36.691Z,4.30
2018-08-13T02:46:38.901Z,2.67
2018-08-13T02:50:41.159Z,2.93
2018-08-13T02:54:43.330Z,2.70
2018-08-13T02:58:45.567Z,2.43
2018-08-13T03:02:47.695Z,2.23
2018-08-13T03:06:49.868Z,2.37
2018-08-13T03:10:52.038Z,2.40
2018-08-13T03:14:54.170Z,1.93
2018-08-13T03:18:56.403Z,2.47
2018-08-13T03:22:58.586Z,2.60
2018-08-13T03:27:00.736Z,2.57
2018-08-13T03:31:03.111Z,3.20
2018-08-13T03:35:05.356Z,2.50
2018-08-13T03:39:09.215Z,2.90
2018-08-13T03:43:11.483Z,2.93
2018-08-13T03:47:13.694Z,20.75
2018-08-13T03:51:15.854Z,3.37
2018-08-13T03:55:18.079Z,2.30
2018-08-13T03:59:20.260Z,2.27
2018-08-13T04:03:22.462Z,2.30
2018-08-13T04:07:24.706Z,2.30
2018-08-13T04:11:26.899Z,2.57
2018-08-13T04:15:29.155Z,2.80
2018-08-13T04:19:32.726Z,2.30
2018-08-13T04:23:34.930Z,2.80
2018-08-13T04:27:37.714Z,2.27
2018-08-13T04:31:39.892Z,3.67
2018-08-13T04:35:42.100Z,2.57
2018-08-13T04:39:44.249Z,2.10
2018-08-13T04:43:46.502Z,3.53
2018-08-13T04:47:55.021Z,2.40
2018-08-13T04:51:57.433Z,2.50
2018-08-13T04:55:59.603Z,2.40
2018-08-13T05:00:01.974Z,2.20
2018-08-13T05:04:04.332Z,2.10
2018-08-13T05:08:06.749Z,4.13
2018-08-13T05:12:08.922Z,2.97
2018-08-13T05:16:11.148Z,2.87
2018-08-13T05:20:13.362Z,2.60
2018-08-13T05:24:15.591Z,3.07
2018-08-13T05:28:17.928Z,3.30
2018-08-13T05:32:20.127Z,3.40
2018-08-13T05:36:22.479Z,2.13
2018-08-13T05:40:24.698Z,2.17
2018-08-13T05:44:26.898Z,2.93
2018-08-13T05:48:29.255Z,2.20
2018-08-13T05:52:31.450Z,2.30
2018-08-13T05:56:33.680Z,3.40
2018-08-13T06:00:35.891Z,2.17
2018-08-13T06:04:38.072Z,2.47
2018-08-13T06:08:40.322Z,2.00
2018-08-13T06:12:42.688Z,2.40
2018-08-13T06:16:44.992Z,2.03
2018-08-13T06:20:47.196Z,2.33
2018-08-13T06:24:49.388Z,2.60
2018-08-13T06:28:51.807Z,2.57
2018-08-13T06:32:54.003Z,2.67
2018-08-13T06:36:56.279Z,2.63
2018-08-13T06:40:58.523Z,2.73
2018-08-13T06:45:00.678Z,3.37
2018-08-13T06:49:02.920Z,4.27
2018-08-13T06:53:05.515Z,5.50
2018-08-13T06:57:07.907Z,5.63
2018-08-13T07:01:10.246Z,9.57
2018-08-13T07:05:12.511Z,9.70
2018-08-13T07:09:14.943Z,9.37
2018-08-13T07:13:17.234Z,9.90
2018-08-13T07:17:19.580Z,9.63
2018-08-13T07:21:21.783Z,10.53
2018-08-13T07:25:24.026Z,9.67
2018-08-13T07:29:26.285Z,13.37
2018-08-13T07:33:28.493Z,7.77
2018-08-13T07:37:31.010Z,8.03
2018-08-13T07:41:33.407Z,7.60
2018-08-13T07:45:35.618Z,9.43
2018-08-13T07:49:37.966Z,8.50
2018-08-13T07:53:40.190Z,7.00
2018-08-13T07:57:42.536Z,7.17
2018-08-13T08:01:44.947Z,8.27
2018-08-13T08:05:47.164Z,5.77
2018-08-13T08:09:49.486Z,7.30
2018-08-13T08:13:51.847Z,7.53
2018-08-13T08:17:54.066Z,6.93
2018-08-13T08:21:56.291Z,8.47
2018-08-13T08:25:58.582Z,8.00
2018-08-13T08:30:00.756Z,7.20
2018-08-13T08:34:02.971Z,7.70
2018-08-13T08:38:05.756Z,7.27
2018-08-13T08:42:07.971Z,7.57
2018-08-13T08:46:10.313Z,7.60
2018-08-13T08:50:13.431Z,7.20
2018-08-13T08:54:15.679Z,7.47
2018-08-13T08:58:18.252Z,9.47
2018-08-13T09:02:20.537Z,9.50
2018-08-13T09:06:22.927Z,10.20
2018-08-13T09:10:25.197Z,10.23
2018-08-13T09:14:27.442Z,11.87
2018-08-13T09:18:41.295Z,13.00
2018-08-13T09:22:55.019Z,14.53
2018-08-13T09:27:08.897Z,16.70
2018-08-13T09:31:28.041Z,13.30
2018-08-13T09:35:32.768Z,15.53
2018-08-13T09:39:35.408Z,16.73
2018-08-13T09:43:37.634Z,17.30
2018-08-13T09:47:39.887Z,15.77
2018-08-13T09:51:42.255Z,13.90
2018-08-13T09:55:44.431Z,13.50
2018-08-13T09:59:46.655Z,14.93
2018-08-13T10:03:48.835Z,16.37
2018-08-13T10:07:51.043Z,18.07
2018-08-13T10:11:53.239Z,18.43
2018-08-13T10:15:56.234Z,21.13
2018-08-13T10:19:58.428Z,22.03
2018-08-13T10:24:00.631Z,24.30
2018-08-13T10:28:02.866Z,24.30
2018-08-13T10:32:05.122Z,23.67
2018-08-13T10:36:07.648Z,26.10
2018-08-13T10:40:13.653Z,31.80
2018-08-13T10:44:16.154Z,30.60
2018-08-13T10:48:18.666Z,33.07
2018-08-13T10:52:20.946Z,36.90
2018-08-13T10:56:23.205Z,36.20
2018-08-13T11:00:25.644Z,36.07
2018-08-13T11:04:27.822Z,36.97
2018-08-13T11:08:30.407Z,39.17
2018-08-13T11:12:32.733Z,37.40
2018-08-13T11:16:34.978Z,42.23
2018-08-13T11:20:37.221Z,44.73
2018-08-13T11:24:39.451Z,43.30
2018-08-13T11:28:41.991Z,47.00
2018-08-13T11:32:44.304Z,43.70
2018-08-13T11:36:46.529Z,45.70
2018-08-13T11:40:48.962Z,44.30
2018-08-13T11:44:51.187Z,45.00
2018-08-13T11:48:54.048Z,46.07
2018-08-13T11:52:56.330Z,48.33
2018-08-13T11:56:58.631Z,46.53
2018-08-13T12:01:01.205Z,47.07
2018-08-13T12:05:05.215Z,41.87
2018-08-13T12:09:09.916Z,30.57
2018-08-13T12:13:12.104Z,27.43
2018-08-13T12:17:14.433Z,31.77
2018-08-13T12:21:16.608Z,14.17
2018-08-13T12:25:22.624Z,11.43
2018-08-13T12:29:24.854Z,13.30
2018-08-13T12:33:27.067Z,17.23
2018-08-13T12:37:29.282Z,14.83
2018-08-13T12:41:31.559Z,12.07
2018-08-13T12:45:33.922Z,14.93
2018-08-13T12:49:36.842Z,13.33
2018-08-13T12:53:39.231Z,13.60
2018-08-13T12:57:41.687Z,11.43
2018-08-13T13:01:43.872Z,9.47
2018-08-13T13:05:46.396Z,7.70
2018-08-13T13:09:48.659Z,6.57
2018-08-13T13:13:51.251Z,7.77
2018-08-13T13:17:53.536Z,8.23
2018-08-13T13:21:55.799Z,7.33
2018-08-13T13:25:58.412Z,6.57
2018-08-13T13:30:00.987Z,6.50
2018-08-13T13:34:03.222Z,9.13
2018-08-13T13:38:05.555Z,10.50
2018-08-13T13:42:07.889Z,9.00
2018-08-13T13:46:10.207Z,9.73
2018-08-13T13:50:14.337Z,10.53
2018-08-13T13:54:16.595Z,9.57
2018-08-13T13:58:18.835Z,8.60
2018-08-13T14:02:21.088Z,7.70
2018-08-13T14:06:23.531Z,8.57
2018-08-13T14:10:25.708Z,9.40
2018-08-13T14:14:28.579Z,7.43
2018-08-13T14:18:30.901Z,6.53
2018-08-13T14:22:33.148Z,6.20
2018-08-13T14:26:35.431Z,6.83
2018-08-13T14:30:37.726Z,5.83
2018-08-13T14:34:40.294Z,6.90
2018-08-13T14:38:42.969Z,5.43
2018-08-13T14:42:45.351Z,6.00
2018-08-13T14:46:47.924Z,5.40
2018-08-13T14:50:50.172Z,5.00
2018-08-13T14:54:52.388Z,3.13
2018-08-13T14:58:56.018Z,4.10
2018-08-13T15:02:59.639Z,4.70
2018-08-13T15:07:03.252Z,4.57
2018-08-13T15:11:06.526Z,4.27
2018-08-13T15:15:09.933Z,4.57
2018-08-13T15:19:12.267Z,3.70
2018-08-13T15:23:14.397Z,3.87
2018-08-13T15:27:16.725Z,3.80
2018-08-13T15:31:18.891Z,4.60
2018-08-13T15:35:21.225Z,4.03
2018-08-13T15:39:23.508Z,3.30
2018-08-13T15:43:25.678Z,3.70
2018-08-13T15:47:28.202Z,4.27
2018-08-13T15:51:30.576Z,3.50
2018-08-13T15:55:32.945Z,2.83
2018-08-13T15:59:35.183Z,3.10
2018-08-13T16:03:37.391Z,3.50
2018-08-13T16:07:40.114Z,2.40
2018-08-13T16:11:42.504Z,3.43
2018-08-13T16:15:44.945Z,3.07
2018-08-13T16:19:47.168Z,2.93
2018-08-13T16:23:49.417Z,3.53
2018-08-13T16:27:51.729Z,3.97
2018-08-13T16:31:54.043Z,2.73
2018-08-13T16:35:56.257Z,2.67
2018-08-13T16:39:58.493Z,3.80
2018-08-13T16:44:00.800Z,3.00
2018-08-13T16:48:03.360Z,2.53
2018-08-13T16:52:06.340Z,2.97
2018-08-13T16:56:08.708Z,3.10
2018-08-13T17:00:13.368Z,2.80
2018-08-13T17:04:15.702Z,3.27
2018-08-13T17:08:17.977Z,2.13
2018-08-13T17:12:20.185Z,3.27
2018-08-13T17:16:22.379Z,2.60
2018-08-13T17:20:29.409Z,3.27
2018-08-13T17:24:31.651Z,3.37
2018-08-13T17:28:33.835Z,3.10
2018-08-13T17:32:36.051Z,2.93
2018-08-13T17:36:38.663Z,2.67
2018-08-13T17:40:41.023Z,2.50
2018-08-13T17:44:43.900Z,1.93
2018-08-13T17:48:46.307Z,2.87
2018-08-13T17:52:48.544Z,1.43
2018-08-13T17:56:50.846Z,1.70
2018-08-13T18:00:53.130Z,2.00
2018-08-13T18:04:55.348Z,1.80
2018-08-13T18:08:57.560Z,1.93
2018-08-13T18:13:01.166Z,2.37
2018-08-13T18:17:03.440Z,2.40
2018-08-13T18:21:05.781Z,4.50
2018-08-13T18:25:09.828Z,4.37
2018-08-13T18:29:12.115Z,4.90
2018-08-13T18:33:14.381Z,4.10
2018-08-13T18:37:16.615Z,4.83
2018-08-13T18:41:18.837Z,4.50
2018-08-13T18:45:21.316Z,4.67
2018-08-13T18:49:23.479Z,4.83
2018-08-13T18:53:25.806Z,5.00
2018-08-13T18:57:28.039Z,5.03
2018-08-13T19:01:30.329Z,4.95
2018-08-13T19:05:33.744Z,3.97
2018-08-13T19:09:35.996Z,4.33
2018-08-13T19:13:38.394Z,4.13
2018-08-13T19:17:40.639Z,4.33
2018-08-13T19:21:42.933Z,3.03
2018-08-13T19:25:45.165Z,3.03
2018-08-13T19:29:47.359Z,2.30
2018-08-13T19:33:49.533Z,1.90
2018-08-13T19:37:51.768Z,1.50
2018-08-13T19:41:54.304Z,2.20
2018-08-13T19:45:56.603Z,2.50
2018-08-13T19:49:58.827Z,2.30
2018-08-13T19:54:01.236Z,2.17
2018-08-13T19:58:03.583Z,2.33
2018-08-13T20:02:06.193Z,3.20
2018-08-13T20:06:08.408Z,2.20
2018-08-13T20:10:12.433Z,3.00
2018-08-13T20:14:14.684Z,2.60
2018-08-13T20:18:16.863Z,2.77
2018-08-13T20:22:19.121Z,2.33
2018-08-13T20:26:21.317Z,2.70
2018-08-13T20:30:23.514Z,2.77
2018-08-13T20:34:25.712Z,3.33
2018-08-13T20:38:27.903Z,4.03
2018-08-13T20:42:30.093Z,3.67
2018-08-13T20:46:32.377Z,3.20
2018-08-13T20:50:34.538Z,2.83
2018-08-13T20:54:36.739Z,2.83
2018-08-13T20:58:38.998Z,3.00
2018-08-13T21:02:42.084Z,3.27
2018-08-13T21:06:44.323Z,2.40
2018-08-13T21:10:46.515Z,2.67
2018-08-13T21:14:48.764Z,2.70
2018-08-13T21:18:51.003Z,2.83
2018-08-13T21:22:53.648Z,3.10
2018-08-13T21:26:55.911Z,3.47
2018-08-13T21:30:58.208Z,3.57
2018-08-13T21:35:00.449Z,2.97
2018-08-13T21:39:03.623Z,3.53
2018-08-13T21:43:05.914Z,4.10
2018-08-13T21:47:08.143Z,2.90
2018-08-13T21:51:10.336Z,3.93
2018-08-13T21:55:12.588Z,3.60
2018-08-13T21:59:14.876Z,3.30
2018-08-13T22:03:17.107Z,3.53
2018-08-13T22:07:19.321Z,3.27
2018-08-13T22:11:21.610Z,3.47
2018-08-13T22:15:26.833Z,3.73
2018-08-13T22:19:29.065Z,3.50
2018-08-13T22:23:31.306Z,3.40
2018-08-13T22:27:33.544Z,3.37
2018-08-13T22:31:35.818Z,4.03
2018-08-13T22:35:38.229Z,3.30
2018-08-13T22:39:40.432Z,3.80
2018-08-13T22:43:42.623Z,3.37
2018-08-13T22:47:44.869Z,2.73
2018-08-13T22:51:47.135Z,2.90
2018-08-13T22:55:49.387Z,3.80
2018-08-13T22:59:51.563Z,3.10
2018-08-13T23:03:53.891Z,3.00
2018-08-13T23:07:56.349Z,3.47
2018-08-13T23:11:58.601Z,3.70
2018-08-13T23:16:00.870Z,3.43
2018-08-13T23:20:04.496Z,3.60
2018-08-13T23:24:06.802Z,3.40
2018-08-13T23:28:10.207Z,3.10
2018-08-13T23:32:12.411Z,3.33
2018-08-13T23:36:14.609Z,3.30
2018-08-13T23:40:16.850Z,3.03
2018-08-13T23:44:19.033Z,3.57
2018-08-13T23:48:21.273Z,3.00
2018-08-13T23:52:23.638Z,3.50
2018-08-13T23:56:25.816Z,3.23
